createdAt,value
2018-11-10T00:01:27.676Z,50.59
2018-11-10T00:03:56.282Z,51.49
2018-11-10T00:06:25.194Z,50.71
2018-11-10T00:08:53.163Z,49.88
2018-11-10T00:11:20.680Z,48.88
2018-11-10T00:13:48.161Z,49.52
2018-11-10T00:16:16.149Z,49.25
2018-11-10T00:18:43.784Z,49.49
2018-11-10T00:21:11.629Z,49.46
2018-11-10T00:23:39.040Z,50.81
2018-11-10T00:26:07.603Z,49.31
2018-11-10T00:28:35.598Z,48.90
2018-11-10T00:31:03.140Z,50.94
2018-11-10T00:33:33.444Z,50.08
2018-11-10T00:36:00.908Z,52.44
2018-11-10T00:38:28.392Z,51.32
2018-11-10T00:40:57.562Z,50.67
2018-11-10T00:43:25.019Z,49.43
2018-11-10T00:45:53.040Z,48.62
2018-11-10T00:48:20.621Z,48.64
2018-11-10T00:50:48.056Z,48.38
2018-11-10T00:53:16.108Z,48.05
2018-11-10T00:55:45.589Z,48.55
2018-11-10T00:58:15.549Z,47.85
2018-11-10T01:00:44.204Z,48.58
2018-11-10T01:03:12.118Z,47.79
2018-11-10T01:05:40.622Z,47.70
2018-11-10T01:08:08.452Z,48.71
2018-11-10T01:10:35.987Z,48.75
2018-11-10T01:13:03.470Z,48.16
2018-11-10T01:15:31.030Z,47.65
2018-11-10T01:17:58.962Z,47.57
2018-11-10T01:20:26.461Z,48.01
2018-11-10T01:22:54.888Z,48.36
2018-11-10T01:25:22.489Z,49.71
2018-11-10T01:27:50.031Z,51.88
2018-11-10T01:30:17.831Z,49.73
2018-11-10T01:32:47.297Z,51.40
2018-11-10T01:35:15.557Z,49.72
2018-11-10T01:37:43.107Z,48.22
2018-11-10T01:40:11.962Z,50.28
2018-11-10T01:42:40.326Z,49.42
2018-11-10T01:45:11.077Z,50.60
2018-11-10T01:47:40.186Z,49.84
2018-11-10T01:50:08.309Z,48.80
2018-11-10T01:52:35.746Z,49.17
2018-11-10T01:55:03.715Z,47.91
2018-11-10T01:57:31.126Z,48.05
2018-11-10T01:59:59.008Z,48.23
2018-11-10T02:02:26.544Z,49.25
2018-11-10T02:04:53.997Z,48.02
2018-11-10T02:07:22.103Z,47.24
2018-11-10T02:09:51.465Z,47.36
2018-11-10T02:12:19.432Z,47.92
2018-11-10T02:14:48.026Z,46.96
2018-11-10T02:17:16.374Z,46.77
2018-11-10T02:19:44.520Z,45.95
2018-11-10T02:22:12.186Z,45.90
2018-11-10T02:24:41.692Z,45.69
2018-11-10T02:27:15.341Z,46.09
2018-11-10T02:29:42.807Z,48.63
2018-11-10T02:32:10.713Z,49.22
2018-11-10T02:34:38.185Z,47.85
2018-11-10T02:37:07.422Z,47.13
2018-11-10T02:39:34.865Z,47.56
2018-11-10T02:42:02.364Z,46.72
2018-11-10T02:44:30.386Z,46.55
2018-11-10T02:46:57.922Z,46.30
2018-11-10T02:49:25.877Z,47.78
2018-11-10T02:51:53.468Z,47.97
2018-11-10T02:54:21.062Z,47.31
2018-11-10T02:56:49.066Z,46.59
2018-11-10T02:59:17.040Z,46.26
2018-11-10T03:01:46.065Z,46.21
2018-11-10T03:04:13.518Z,45.94
2018-11-10T03:06:40.978Z,45.77
2018-11-10T03:09:09.289Z,44.91
2018-11-10T03:11:37.264Z,45.52
2018-11-10T03:14:05.609Z,44.42
2018-11-10T03:16:33.198Z,44.53
2018-11-10T03:19:00.691Z,43.39
2018-11-10T03:21:29.349Z,44.13
2018-11-10T03:23:57.287Z,42.89
2018-11-10T03:26:26.809Z,42.63
2018-11-10T03:28:54.828Z,42.52
2018-11-10T03:31:22.657Z,42.58
2018-11-10T03:33:50.859Z,42.16
2018-11-10T03:36:20.543Z,41.95
2018-11-10T03:38:48.853Z,44.61
2018-11-10T03:41:16.289Z,42.89
2018-11-10T03:43:43.741Z,42.53
2018-11-10T03:46:11.784Z,42.62
2018-11-10T03:48:39.330Z,43.95
2018-11-10T03:51:08.165Z,42.82
2018-11-10T03:53:35.753Z,43.46
2018-11-10T03:56:03.913Z,43.72
2018-11-10T03:58:32.255Z,44.34
2018-11-10T04:01:00.917Z,44.57
2018-11-10T04:03:28.921Z,43.82
2018-11-10T04:05:56.888Z,44.36
2018-11-10T04:08:24.321Z,43.05
2018-11-10T04:10:52.089Z,44.70
2018-11-10T04:13:20.345Z,44.04
2018-11-10T04:15:48.230Z,43.83
2018-11-10T04:18:15.595Z,42.84
2018-11-10T04:20:43.892Z,43.90
2018-11-10T04:23:11.822Z,44.02
2018-11-10T04:25:39.302Z,43.31
2018-11-10T04:28:08.167Z,42.92
2018-11-10T04:30:35.663Z,42.99
2018-11-10T04:33:03.169Z,43.94
2018-11-10T04:35:31.476Z,42.92
2018-11-10T04:37:59.095Z,43.07
2018-11-10T04:40:28.536Z,43.04
2018-11-10T04:42:56.891Z,43.50
2018-11-10T04:45:24.305Z,43.69
2018-11-10T04:47:52.183Z,43.12
2018-11-10T04:50:19.762Z,43.59
2018-11-10T04:52:47.850Z,43.71
2018-11-10T04:55:15.316Z,43.77
2018-11-10T04:57:45.713Z,45.37
2018-11-10T05:00:14.933Z,44.88
2018-11-10T05:02:43.550Z,44.68
2018-11-10T05:05:12.341Z,43.57
2018-11-10T05:07:40.025Z,44.96
2018-11-10T05:10:08.559Z,45.77
2018-11-10T05:12:36.502Z,46.41
2018-11-10T05:15:05.362Z,45.85
2018-11-10T05:17:33.318Z,45.45
2018-11-10T05:20:00.826Z,45.12
2018-11-10T05:22:28.229Z,45.11
2018-11-10T05:24:56.107Z,44.66
2018-11-10T05:27:24.096Z,45.26
2018-11-10T05:29:52.980Z,45.36
2018-11-10T05:32:20.373Z,44.41
2018-11-10T05:34:47.850Z,44.73
2018-11-10T05:37:15.773Z,44.41
2018-11-10T05:39:43.389Z,47.16
2018-11-10T05:42:11.799Z,45.96
2018-11-10T05:44:39.868Z,45.31
2018-11-10T05:47:07.404Z,44.45
2018-11-10T05:49:36.254Z,44.58
2018-11-10T05:52:04.010Z,46.03
2018-11-10T05:54:33.636Z,44.75
2018-11-10T05:57:01.125Z,44.93
2018-11-10T05:59:28.606Z,44.67
2018-11-10T06:01:56.605Z,44.92
2018-11-10T06:04:24.100Z,45.09
2018-11-10T06:06:52.031Z,46.37
2018-11-10T06:09:19.615Z,48.19
2018-11-10T06:11:47.137Z,48.65
2018-11-10T06:14:15.150Z,47.76
2018-11-10T06:16:43.324Z,48.14
2018-11-10T06:19:12.688Z,48.11
2018-11-10T06:21:40.181Z,47.79
2018-11-10T06:24:07.645Z,48.59
2018-11-10T06:26:35.678Z,47.90
2018-11-10T06:29:03.103Z,49.79
2018-11-10T06:31:31.244Z,49.58
2018-11-10T06:33:58.780Z,50.41
2018-11-10T06:36:26.248Z,51.41
2018-11-10T06:38:54.185Z,49.89
2018-11-10T06:41:23.126Z,48.96
2018-11-10T06:43:51.369Z,50.03
2018-11-10T06:46:18.802Z,50.08
2018-11-10T06:48:47.581Z,51.18
2018-11-10T06:51:15.527Z,50.24
2018-11-10T06:53:43.189Z,50.17
2018-11-10T06:56:18.410Z,49.99
2018-11-10T06:58:45.849Z,50.74
2018-11-10T07:01:13.334Z,49.24
2018-11-10T07:03:42.073Z,49.40
2018-11-10T07:06:09.629Z,51.21
2018-11-10T07:08:37.522Z,50.75
2018-11-10T07:11:05.135Z,51.66
2018-11-10T07:13:33.003Z,54.83
2018-11-10T07:16:01.358Z,54.40
2018-11-10T07:18:30.722Z,55.77
2018-11-10T07:20:58.818Z,54.42
2018-11-10T07:23:26.325Z,55.44
2018-11-10T07:25:53.998Z,55.32
2018-11-10T07:28:21.821Z,54.80
2018-11-10T07:30:50.304Z,54.70
2018-11-10T07:33:18.402Z,55.08
2018-11-10T07:35:45.918Z,56.74
2018-11-10T07:38:14.508Z,55.98
2018-11-10T07:40:43.405Z,55.19
2018-11-10T07:43:11.195Z,55.41
2018-11-10T07:45:39.982Z,55.25
2018-11-10T07:48:07.511Z,54.99
2018-11-10T07:50:34.977Z,54.13
2018-11-10T07:53:02.851Z,54.26
2018-11-10T07:55:30.357Z,53.14
2018-11-10T07:57:58.288Z,53.41
2018-11-10T08:00:25.763Z,53.30
2018-11-10T08:02:53.841Z,51.98
2018-11-10T08:05:22.172Z,53.82
2018-11-10T08:07:49.622Z,53.22
2018-11-10T08:10:18.816Z,53.64
2018-11-10T08:12:47.316Z,52.79
2018-11-10T08:15:16.189Z,56.16
2018-11-10T08:17:44.742Z,55.42
2018-11-10T08:20:13.472Z,55.06
2018-11-10T08:22:41.500Z,56.08
2018-11-10T08:25:11.480Z,54.58
2018-11-10T08:27:39.109Z,53.30
2018-11-10T08:30:09.371Z,53.08
2018-11-10T08:32:36.836Z,52.22
2018-11-10T08:35:06.024Z,51.61
2018-11-10T08:37:33.564Z,52.68
2018-11-10T08:40:01.153Z,52.33
2018-11-10T08:42:29.054Z,52.69
2018-11-10T08:44:56.518Z,52.06
2018-11-10T08:47:24.711Z,54.31
2018-11-10T08:49:52.179Z,54.61
2018-11-10T08:52:19.632Z,53.70
2018-11-10T08:54:48.171Z,52.64
2018-11-10T08:57:15.706Z,53.44
2018-11-10T08:59:44.706Z,53.69
2018-11-10T09:02:12.268Z,54.18
2018-11-10T09:04:40.589Z,53.43
2018-11-10T09:07:08.886Z,53.52
2018-11-10T09:09:37.705Z,52.97
2018-11-10T09:12:08.503Z,52.28
2018-11-10T09:14:36.102Z,51.31
2018-11-10T09:17:05.028Z,52.88
2018-11-10T09:19:33.122Z,53.08
2018-11-10T09:22:01.265Z,51.93
2018-11-10T09:24:29.597Z,51.69
2018-11-10T09:26:57.097Z,52.40
2018-11-10T09:29:24.595Z,52.27
2018-11-10T09:31:52.568Z,53.77
2018-11-10T09:34:20.039Z,52.58
2018-11-10T09:36:48.000Z,52.35
2018-11-10T09:39:15.595Z,50.91
2018-11-10T09:41:43.115Z,51.67
2018-11-10T09:44:11.049Z,49.97
2018-11-10T09:46:38.748Z,50.20
2018-11-10T09:49:07.629Z,51.07
2018-11-10T09:51:35.545Z,50.11
2018-11-10T09:54:04.059Z,49.49
2018-11-10T09:56:31.936Z,49.08
2018-11-10T09:58:59.389Z,48.79
2018-11-10T10:01:27.357Z,48.46
2018-11-10T10:03:54.726Z,50.03
2018-11-10T10:06:22.194Z,49.66
2018-11-10T10:08:50.394Z,49.65
2018-11-10T10:11:17.828Z,49.14
2018-11-10T10:13:47.534Z,50.09
2018-11-10T10:16:15.181Z,50.07
2018-11-10T10:18:42.612Z,49.50
2018-11-10T10:21:10.681Z,49.37
2018-11-10T10:23:38.226Z,50.09
2018-11-10T10:26:06.185Z,50.01
2018-11-10T10:28:33.735Z,50.35
2018-11-10T10:31:02.708Z,50.07
2018-11-10T10:33:30.545Z,49.60
2018-11-10T10:35:58.036Z,49.24
2018-11-10T10:38:26.650Z,50.00
2018-11-10T10:40:54.083Z,50.05
2018-11-10T10:43:21.812Z,51.43
2018-11-10T10:45:49.865Z,51.98
2018-11-10T10:48:17.342Z,52.40
2018-11-10T10:50:45.379Z,52.28
2018-11-10T10:53:12.978Z,51.95
2018-11-10T10:55:40.474Z,51.57
2018-11-10T10:58:08.498Z,51.83
2018-11-10T11:00:41.702Z,51.26
2018-11-10T11:03:16.452Z,51.47
2018-11-10T11:05:49.030Z,52.83
2018-11-10T11:08:17.042Z,53.05
2018-11-10T11:10:44.507Z,54.75
2018-11-10T11:13:12.643Z,55.98
2018-11-10T11:15:40.183Z,55.17
2018-11-10T11:18:07.606Z,54.80
2018-11-10T11:20:35.641Z,53.64
2018-11-10T11:23:03.166Z,53.16
2018-11-10T11:25:32.388Z,54.06
2018-11-10T11:28:00.473Z,54.43
2018-11-10T11:30:27.929Z,54.86
2018-11-10T11:32:55.977Z,54.99
2018-11-10T11:35:23.593Z,54.87
2018-11-10T11:37:51.457Z,54.53
2018-11-10T11:40:18.902Z,54.44
2018-11-10T11:42:46.620Z,54.17
2018-11-10T11:45:14.572Z,54.13
2018-11-10T11:47:42.730Z,53.82
2018-11-10T11:50:12.622Z,53.11
2018-11-10T11:52:40.743Z,53.10
2018-11-10T11:55:09.044Z,55.71
2018-11-10T11:57:37.170Z,54.99
2018-11-10T12:00:05.980Z,54.73
2018-11-10T12:02:34.038Z,54.79
2018-11-10T12:05:02.520Z,54.46
2018-11-10T12:07:30.049Z,55.65
2018-11-10T12:09:57.963Z,54.98
2018-11-10T12:12:25.541Z,54.77
2018-11-10T12:14:54.784Z,54.64
2018-11-10T12:17:22.292Z,54.08
2018-11-10T12:19:49.884Z,53.61
2018-11-10T12:22:17.799Z,53.44
2018-11-10T12:24:45.482Z,53.33
2018-11-10T12:27:13.687Z,53.14
2018-11-10T12:29:41.366Z,53.20
2018-11-10T12:32:08.860Z,53.33
2018-11-10T12:34:36.942Z,54.19
2018-11-10T12:37:04.531Z,53.85
2018-11-10T12:39:33.922Z,53.15
2018-11-10T12:42:03.320Z,53.19
2018-11-10T12:44:30.798Z,53.38
2018-11-10T12:46:58.749Z,53.24
2018-11-10T12:49:26.301Z,52.66
2018-11-10T12:51:54.333Z,52.88
2018-11-10T12:54:21.770Z,52.37
2018-11-10T12:56:49.309Z,52.86
2018-11-10T12:59:17.224Z,54.04
2018-11-10T13:01:44.731Z,54.95
2018-11-10T13:04:13.612Z,55.77
2018-11-10T13:06:41.079Z,55.05
2018-11-10T13:09:09.661Z,56.28
2018-11-10T13:11:38.135Z,55.43
2018-11-10T13:14:06.500Z,55.02
2018-11-10T13:16:34.812Z,55.62
2018-11-10T13:19:02.867Z,55.00
2018-11-10T13:21:30.327Z,54.30
2018-11-10T13:23:58.383Z,54.24
2018-11-10T13:26:26.242Z,53.03
2018-11-10T13:28:56.261Z,52.73
2018-11-10T13:31:24.402Z,52.87
2018-11-10T13:33:51.629Z,51.97
2018-11-10T13:36:19.665Z,54.04
2018-11-10T13:38:47.218Z,52.66
2018-11-10T13:41:15.259Z,52.54
2018-11-10T13:43:42.789Z,51.29
2018-11-10T13:46:10.242Z,52.58
2018-11-10T13:48:38.110Z,52.54
2018-11-10T13:51:06.113Z,51.83
2018-11-10T13:53:35.407Z,52.18
2018-11-10T13:56:03.387Z,50.87
2018-11-10T13:58:30.962Z,51.05
2018-11-10T14:00:58.940Z,51.34
2018-11-10T14:03:26.417Z,50.70
2018-11-10T14:05:54.405Z,50.63
2018-11-10T14:08:21.905Z,50.53
2018-11-10T14:10:49.437Z,50.52
2018-11-10T14:13:17.338Z,50.73
2018-11-10T14:15:44.794Z,50.75
2018-11-10T14:18:14.195Z,50.54
2018-11-10T14:20:41.734Z,51.37
2018-11-10T14:23:09.191Z,51.61
2018-11-10T14:25:37.092Z,51.77
2018-11-10T14:28:04.781Z,51.60
2018-11-10T14:30:33.056Z,51.51
2018-11-10T14:33:00.874Z,51.07
2018-11-10T14:35:28.392Z,51.18
2018-11-10T14:37:56.518Z,51.16
2018-11-10T14:40:24.102Z,51.01
2018-11-10T14:42:52.603Z,50.80
2018-11-10T14:45:20.269Z,51.31
2018-11-10T14:47:48.996Z,50.81
2018-11-10T14:50:18.167Z,51.07
2018-11-10T14:52:45.855Z,50.08
2018-11-10T14:55:14.451Z,49.55
2018-11-10T14:57:42.170Z,50.00
2018-11-10T15:00:13.879Z,49.44
2018-11-10T15:02:42.065Z,49.94
2018-11-10T15:05:10.508Z,49.37
2018-11-10T15:07:39.487Z,49.89
2018-11-10T15:10:09.205Z,50.31
2018-11-10T15:12:37.389Z,49.80
2018-11-10T15:15:07.118Z,49.43
2018-11-10T15:17:35.006Z,48.73
2018-11-10T15:20:03.350Z,48.33
2018-11-10T15:22:30.761Z,48.23
2018-11-10T15:24:58.249Z,48.46
2018-11-10T15:27:26.209Z,49.22
2018-11-10T15:29:53.977Z,48.42
2018-11-10T15:32:22.996Z,48.13
2018-11-10T15:34:51.433Z,49.18
2018-11-10T15:37:19.999Z,49.40
2018-11-10T15:39:49.653Z,49.92
2018-11-10T15:42:17.889Z,50.45
2018-11-10T15:44:46.277Z,49.58
2018-11-10T15:47:14.403Z,49.19
2018-11-10T15:49:41.893Z,50.05
2018-11-10T15:52:09.826Z,47.99
2018-11-10T15:54:37.417Z,48.76
2018-11-10T15:57:06.628Z,48.07
2018-11-10T15:59:34.185Z,49.66
2018-11-10T16:02:02.487Z,50.34
2018-11-10T16:04:31.017Z,48.99
2018-11-10T16:06:59.087Z,48.38
2018-11-10T16:09:26.981Z,49.08
2018-11-10T16:11:54.726Z,48.24
2018-11-10T16:14:22.325Z,48.76
2018-11-10T16:16:50.794Z,47.82
2018-11-10T16:19:18.540Z,48.67
2018-11-10T16:21:47.863Z,48.19
2018-11-10T16:24:15.566Z,48.45
2018-11-10T16:26:43.052Z,48.86
2018-11-10T16:32:08.130Z,47.50
2018-11-10T16:34:36.093Z,47.92
2018-11-10T16:37:04.160Z,48.15
2018-11-10T16:39:31.729Z,47.97
2018-11-10T16:41:59.230Z,48.12
2018-11-10T16:44:28.846Z,48.56
2018-11-10T16:46:56.348Z,47.75
2018-11-10T16:49:24.065Z,47.74
2018-11-10T16:51:51.586Z,47.37
2018-11-10T16:54:19.054Z,47.82
2018-11-10T16:56:47.700Z,47.77
2018-11-10T16:59:15.716Z,48.18
2018-11-10T17:01:43.140Z,49.41
2018-11-10T17:04:11.290Z,49.10
2018-11-10T17:06:39.725Z,48.07
2018-11-10T17:09:11.348Z,47.41
2018-11-10T17:11:39.014Z,48.03
2018-11-10T17:14:07.191Z,48.83
2018-11-10T17:16:34.822Z,49.08
2018-11-10T17:19:02.390Z,48.72
2018-11-10T17:21:30.946Z,48.68
2018-11-10T17:23:58.568Z,48.65
2018-11-10T17:26:26.400Z,49.18
2018-11-10T17:28:54.330Z,48.72
2018-11-10T17:31:22.396Z,48.08
2018-11-10T17:33:51.330Z,48.16
2018-11-10T17:36:19.064Z,48.43
2018-11-10T17:38:46.811Z,48.11
2018-11-10T17:41:14.796Z,48.82
2018-11-10T17:43:42.336Z,48.60
2018-11-10T17:46:10.720Z,48.76
2018-11-10T17:48:38.403Z,49.26
2018-11-10T17:57:52.045Z,50.68
2018-11-10T18:00:19.513Z,50.59
2018-11-10T18:02:47.057Z,50.26
2018-11-10T18:05:16.547Z,49.07
2018-11-10T18:07:44.291Z,49.96
2018-11-10T18:10:15.539Z,49.37
2018-11-10T18:12:43.911Z,49.05
2018-11-10T18:15:11.817Z,48.86
2018-11-10T18:17:39.650Z,48.63
2018-11-10T18:20:08.141Z,49.28
2018-11-10T18:22:36.493Z,49.32
2018-11-10T18:25:04.381Z,50.31
2018-11-10T18:27:33.093Z,49.35
2018-11-10T18:30:00.632Z,49.61
2018-11-10T18:32:28.271Z,50.77
2018-11-10T18:34:58.072Z,50.08
2018-11-10T18:37:25.690Z,50.40
2018-11-10T18:39:53.234Z,49.93
2018-11-10T18:42:21.043Z,51.54
2018-11-10T18:44:48.534Z,51.98
2018-11-10T18:47:17.619Z,52.60
2018-11-10T18:49:45.452Z,51.51
2018-11-10T18:52:13.027Z,50.49
2018-11-10T18:54:40.529Z,51.34
2018-11-10T18:57:08.442Z,50.76
2018-11-10T18:59:37.963Z,52.34
2018-11-10T19:02:05.646Z,52.22
2018-11-10T19:04:34.508Z,52.59
2018-11-10T19:07:01.958Z,52.52
2018-11-10T19:09:29.485Z,53.02
2018-11-10T19:11:58.165Z,52.90
2018-11-10T19:14:25.624Z,52.28
2018-11-10T19:16:53.268Z,52.47
2018-11-10T19:19:21.873Z,51.91
2018-11-10T19:21:49.325Z,52.05
2018-11-10T19:24:18.569Z,52.03
2018-11-10T19:26:47.009Z,51.96
2018-11-10T19:29:14.530Z,51.95
2018-11-10T19:31:41.969Z,52.02
2018-11-10T19:34:09.698Z,51.32
2018-11-10T19:36:38.610Z,51.70
2018-11-10T19:39:08.363Z,51.66
2018-11-10T19:41:36.100Z,51.99
2018-11-10T19:44:03.527Z,51.75
2018-11-10T19:46:31.055Z,52.77
2018-11-10T19:49:00.036Z,52.13
2018-11-10T19:51:27.628Z,54.65
2018-11-10T19:53:54.850Z,53.49
2018-11-10T19:56:23.570Z,54.44
2018-11-10T19:58:51.034Z,53.73
2018-11-10T20:01:19.405Z,54.48
2018-11-10T20:03:46.963Z,55.10
2018-11-10T20:06:14.456Z,54.94
2018-11-10T20:08:42.744Z,55.06
2018-11-10T20:11:10.937Z,56.44
2018-11-10T20:13:40.256Z,55.87
2018-11-10T20:16:08.258Z,55.76
2018-11-10T20:18:36.696Z,56.54
2018-11-10T20:21:04.434Z,56.38
2018-11-10T20:23:32.919Z,55.84
2018-11-10T20:26:04.742Z,56.19
2018-11-10T20:28:32.568Z,58.10
2018-11-10T20:31:00.069Z,56.88
2018-11-10T20:33:27.701Z,55.62
2018-11-10T20:35:55.288Z,56.09
2018-11-10T20:38:25.723Z,54.81
2018-11-10T20:40:54.205Z,54.76
2018-11-10T20:43:22.237Z,54.48
2018-11-10T20:45:49.760Z,53.81
2018-11-10T20:48:18.552Z,53.91
2018-11-10T20:50:48.455Z,53.33
2018-11-10T20:53:16.641Z,53.32
2018-11-10T20:55:45.654Z,53.45
2018-11-10T20:58:13.159Z,54.54
2018-11-10T21:00:40.995Z,55.06
2018-11-10T21:03:14.320Z,54.34
2018-11-10T21:05:42.264Z,55.00
2018-11-10T21:08:11.739Z,55.07
2018-11-10T21:10:39.972Z,53.95
2018-11-10T21:13:07.509Z,54.01
2018-11-10T21:15:37.274Z,53.32
2018-11-10T21:18:04.825Z,53.55
2018-11-10T21:20:32.301Z,53.96
2018-11-10T21:22:59.841Z,53.55
2018-11-10T21:25:27.321Z,52.89
2018-11-10T21:27:55.706Z,52.60
2018-11-10T21:30:23.204Z,52.69
2018-11-10T21:32:50.844Z,52.22
2018-11-10T21:35:18.481Z,52.94
2018-11-10T21:37:45.885Z,53.78
2018-11-10T21:40:16.579Z,54.27
2018-11-10T21:42:44.311Z,53.27
2018-11-10T21:45:12.684Z,52.72
2018-11-10T21:47:40.923Z,52.26
2018-11-10T21:50:10.947Z,52.25
2018-11-10T21:52:40.992Z,54.07
2018-11-10T21:55:10.590Z,53.59
2018-11-10T21:57:40.038Z,52.97
2018-11-10T22:00:10.279Z,53.24
2018-11-10T22:02:38.253Z,51.84
2018-11-10T22:05:07.019Z,52.19
2018-11-10T22:07:34.620Z,52.40
2018-11-10T22:10:02.309Z,53.42
2018-11-10T22:12:29.676Z,52.96
2018-11-10T22:14:57.130Z,52.27
2018-11-10T22:17:25.642Z,53.12
2018-11-10T22:19:53.072Z,53.01
2018-11-10T22:22:20.642Z,52.63
2018-11-10T22:24:49.270Z,51.69
2018-11-10T22:27:16.881Z,50.80
2018-11-10T22:29:46.626Z,51.81
2018-11-10T22:32:15.175Z,51.16
2018-11-10T22:34:43.308Z,50.71
2018-11-10T22:37:10.845Z,51.31
2018-11-10T22:39:38.637Z,51.17
2018-11-10T22:42:06.930Z,50.62
2018-11-10T22:44:34.874Z,51.76
2018-11-10T22:47:02.396Z,50.94
2018-11-10T22:49:29.813Z,50.95
2018-11-10T22:51:57.297Z,50.71
2018-11-10T22:54:26.932Z,50.28
2018-11-10T22:56:54.554Z,49.83
2018-11-10T22:59:22.108Z,50.49
2018-11-10T23:01:49.642Z,49.51
2018-11-10T23:04:18.030Z,49.67
2018-11-10T23:06:47.726Z,50.61
2018-11-10T23:09:15.745Z,51.54
2018-11-10T23:11:43.869Z,51.00
2018-11-10T23:14:11.315Z,50.74
2018-11-10T23:16:38.872Z,51.09
2018-11-10T23:19:07.689Z,51.62
2018-11-10T23:21:35.300Z,50.64
2018-11-10T23:24:02.904Z,50.46
2018-11-10T23:26:30.397Z,51.38
2018-11-10T23:28:57.829Z,51.73
2018-11-10T23:31:26.282Z,52.38
2018-11-10T23:33:53.790Z,52.37
2018-11-10T23:36:21.297Z,51.97
2018-11-10T23:38:48.778Z,50.90
2018-11-10T23:41:16.311Z,51.40
2018-11-10T23:43:45.545Z,52.08
2018-11-10T23:46:13.309Z,53.51
2018-11-10T23:48:40.789Z,53.92
2018-11-10T23:51:08.288Z,52.90
2018-11-10T23:53:35.865Z,53.54
2018-11-10T23:56:04.333Z,51.71
2018-11-10T23:58:31.818Z,53.14
